• Join FlightAware (Why Join?)
  • Login
  • US Flag 
05:00PM EDT


 

Airport Tracker/Info


-or-


 

Live Flight TrackerFlight Track Log ✈ LXJ518 ✈ 29-Apr-2012 ✈ KLAS - KAUS

Flight Track Log - Related Links

Times and Time Zones

All times are in EDT time to prevent confusion due to time zone crossing. See the LXJ518 flight status page for this flight to view local times or setup timezone preferences in your user account.

Time Position Orientation Groundspeed Altitude Reporting Facility
EDT Latitude Longitude Course Direction KTS MPH feet Rate Location/Type
04:39PM 36.1017 -115.1575 62° Northeast 159 183 3,500  Level Los Angeles Center
04:40PM 36.1344 -115.0825 83° East 256 295 7,700 3,360 Climbing Los Angeles Center
04:41PM 36.1461 -114.9692 107° East 323 372 11,300 3,720 Climbing Los Angeles Center
04:42PM 36.1178 -114.8514 111° Southeast 340 391 15,400 3,600 Climbing Los Angeles Center
04:43PM 36.0789 -114.7286 110° East 353 406 18,500 2,760 Climbing Los Angeles Center
04:44PM 36.0397 -114.5958 107° East 388 447 20,900 1,560 Climbing Los Angeles Center
04:45PM 36.0044 -114.4525 100° East 411 473 21,700 1,080 Climbing Los Angeles Center
04:46PM 35.9836 -114.3067 114° Southeast 423 487 23,100 1,980 Climbing Los Angeles Center
04:47PM 35.9336 -114.1694 119° Southeast 428 493 25,700 2,520 Climbing Los Angeles Center
04:48PM 35.8708 -114.0325 120° Southeast 444 511 28,200 2,400 Climbing Los Angeles Center
04:49PM 35.8058 -113.8958 120° Southeast 456 525 30,500 2,100 Climbing Los Angeles Center
04:50PM 35.7383 -113.7519 122° Southeast 461 531 32,500 2,100 Climbing Los Angeles Center
04:51PM 35.6689 -113.6158 120° Southeast 467 537 34,800 2,220 Climbing Los Angeles Center
04:53PM 35.5386 -113.3358 120° Southeast 466 536 39,400 1,920 Climbing Albuquerque Center
04:54PM 35.4756 -113.2042 121° Southeast 453 521 40,800 1,140 Climbing Albuquerque Center
04:55PM 35.4114 -113.0711 121° Southeast 455 524 41,800 960 Climbing Albuquerque Center
04:56PM 35.3400 -112.9236 121° Southeast 466 536 42,900 960 Climbing Albuquerque Center
04:57PM 35.2733 -112.7853 121° Southeast 467 537 43,900 960 Climbing Albuquerque Center
04:58PM 35.2094 -112.6539 121° Southeast 459 528 44,900 480 Climbing Albuquerque Center
04:59PM 35.1450 -112.5222 121° Southeast 454 522 45,000  Climbing Albuquerque Center
05:01PM 35.0642 -112.3603 121° Southeast 463 533 45,000  Level Albuquerque Center
05:02PM 34.9956 -112.2197 121° Southeast 476 548 45,000  Level Albuquerque Center
05:03PM 34.9264 -112.0803 121° Southeast 483 556 45,000  Level Albuquerque Center
05:04PM 34.8575 -111.9408 121° Southeast 484 557 45,000  Level Albuquerque Center
05:05PM 34.7742 -111.7747 121° Southeast 483 556 45,000  Level Albuquerque Center
05:06PM 34.7056 -111.6378 121° Southeast 482 555 45,000  Level Albuquerque Center
05:07PM 34.6347 -111.4961 121° Southeast 481 554 45,000  Level Albuquerque Center
05:08PM 34.5642 -111.3544 122° Southeast 481 554 45,000  Level Albuquerque Center
05:09PM 34.4919 -111.2133 122° Southeast 482 555 45,000  Level Albuquerque Center
05:10PM 34.4203 -111.0719 122° Southeast 482 555 45,000  Level Albuquerque Center
05:11PM 34.3481 -110.9317 122° Southeast 482 555 45,000  Level Albuquerque Center
05:12PM 34.2761 -110.7908 122° Southeast 482 555 45,000  Level Albuquerque Center
05:13PM 34.1947 -110.6311 122° Southeast 481 554 45,000  Level Albuquerque Center
05:14PM 34.1242 -110.4964 121° Southeast 479 551 45,000  Level Albuquerque Center
05:15PM 34.0561 -110.3603 122° Southeast 479 551 45,000  Level Albuquerque Center
05:16PM 33.9711 -110.1981 123° Southeast 480 552 45,000  Level Albuquerque Center
05:17PM 33.9000 -110.0653 121° Southeast 478 550 45,000  Level Albuquerque Center
05:18PM 33.8311 -109.9292 122° Southeast 479 551 45,000  Level Albuquerque Center
05:19PM 33.7603 -109.7928 123° Southeast 483 556 45,000  Level Albuquerque Center
05:20PM 33.6872 -109.6578 123° Southeast 484 557 45,000  Level Albuquerque Center
05:21PM 33.6011 -109.4975 122° Southeast 483 556 45,000  Level Albuquerque Center
05:22PM 33.5303 -109.3625 122° Southeast 482 555 45,000  Level Albuquerque Center
05:23PM 33.4581 -109.2261 123° Southeast 484 557 45,000  Level Albuquerque Center
05:24PM 33.3842 -109.0892 123° Southeast 488 562 45,000  Level Albuquerque Center
05:25PM 33.2953 -108.9233 123° Southeast 492 566 45,000  Level Albuquerque Center
05:27PM 33.2206 -108.7858 124° Southeast 490 564 45,000  Level Albuquerque Center
05:28PM 33.1428 -108.6489 122° Southeast 493 567 45,000  Level Albuquerque Center
05:29PM 33.0700 -108.5111 123° Southeast 492 566 45,000  Level Albuquerque Center
05:30PM 32.9953 -108.3750 124° Southeast 492 566 45,000  Level Albuquerque Center
05:31PM 32.9200 -108.2406 124° Southeast 491 565 45,000  Level Albuquerque Center
05:32PM 32.8297 -108.0803 122° Southeast 491 565 45,000  Level Albuquerque Center
05:33PM 32.7567 -107.9433 123° Southeast 491 565 45,000  Level Albuquerque Center
05:34PM 32.6825 -107.8103 124° Southeast 489 563 45,000  Level Albuquerque Center
05:35PM 32.6075 -107.6775 123° Southeast 486 559 45,000  Level Albuquerque Center
05:36PM 32.5192 -107.5189 123° Southeast 484 557 45,000  Level Albuquerque Center
05:37PM 32.4472 -107.3894 124° Southeast 482 555 45,000  Level Albuquerque Center
05:38PM 32.3736 -107.2594 123° Southeast 481 554 45,000  Level Albuquerque Center
05:39PM 32.2936 -107.1117 124° Southeast 476 548 45,000  Level Albuquerque Center
05:40PM 32.2142 -106.9711 124° Southeast 478 550 45,000  Level Albuquerque Center
05:41PM 32.1417 -106.8464 124° Southeast 481 554 45,000  Level Albuquerque Center
05:42PM 32.0667 -106.7158 124° Southeast 483 556 45,000  Level Albuquerque Center
05:43PM 31.9908 -106.5858 125° Southeast 483 556 45,000  Level Albuquerque Center
05:44PM 31.9147 -106.4561 123° Southeast 483 556 45,000  Level Albuquerque Center
05:45PM 31.8378 -106.3178 104° East 489 563 45,000  Level Albuquerque Center
05:46PM 31.7981 -106.1278 99° East 501 577 45,000  Level Albuquerque Center
05:47PM 31.7775 -105.9672 98° East 498 573 45,000  Level Albuquerque Center
05:48PM 31.7575 -105.8058 98° East 498 573 45,000  Level Albuquerque Center
05:49PM 31.7375 -105.6444 98° East 499 574 45,000  Level Albuquerque Center
05:50PM 31.7181 -105.4814 98° East 501 577 45,000  Level Albuquerque Center
05:51PM 31.6947 -105.2878 99° East 498 573 45,000  Level Albuquerque Center
05:53PM 31.6736 -105.1264 98° East 498 573 45,000  Level Albuquerque Center
05:54PM 31.6539 -104.9644 98° East 499 574 45,000  Level Albuquerque Center
05:55PM 31.6339 -104.8022 98° East 500 575 45,000 -60 Level Albuquerque Center
05:56PM 31.6133 -104.6400 99° East 500 575 44,900  Descending Albuquerque Center
05:57PM 31.5917 -104.4775 99° East 502 578 45,000  Climbing Albuquerque Center
05:58PM 31.5667 -104.2836 99° East 501 577 45,000 -60 Level Albuquerque Center
05:59PM 31.5453 -104.1225 99° East 500 575 44,900  Descending Albuquerque Center
06:00PM 31.5233 -103.9603 99° East 502 578 45,000  Climbing Albuquerque Center
06:01PM 31.5017 -103.7978 99° East 503 579 45,000  Level Albuquerque Center
06:02PM 31.4769 -103.6147 99° East 502 578 45,000  Level Albuquerque Center
06:03PM 31.4542 -103.4533 98° East 503 579 45,000  Level Albuquerque Center
06:04PM 31.4342 -103.2919 99° East 502 578 45,000  Level Albuquerque Center
06:05PM 31.4133 -103.1303 98° East 503 579 45,000  Level Albuquerque Center
06:06PM 31.3886 -102.9361 99° East 503 579 45,000  Level Albuquerque Center
06:07PM 31.3675 -102.7733 98° East 506 582 45,000  Level Albuquerque Center
06:08PM 31.3472 -102.6111 99° East 505 581 45,000  Level Albuquerque Center
06:09PM 31.3258 -102.4481 99° East 511 588 45,000  Level Albuquerque Center
06:10PM 31.3042 -102.2839 99° East 510 587 45,000  Level Albuquerque Center
06:11PM 31.2789 -102.0942 99° East 505 581 45,000  Level Albuquerque Center
06:12PM 31.2578 -101.9322 99° East 503 579 45,000  Level Albuquerque Center
06:13PM 31.2422 -101.8131 100° East 518 596 45,000  Level Houston Center
06:14PM 31.2189 -101.6533 99° East 504 580 45,000 -60 Level Houston Center
06:15PM 31.1975 -101.4889 99° East 504 580 44,900 -60 Descending Houston Center
06:16PM 31.1797 -101.3611 99° East 504 580 44,900  Level Houston Center
06:17PM 31.1567 -101.1894 99° East 499 574 45,000  Climbing Houston Center
06:18PM 31.1347 -101.0275 100° East 499 574 45,000  Level Houston Center
06:19PM 31.1108 -100.8631 98° East 499 574 45,000  Level Houston Center
06:20PM 31.0906 -100.6992 100° East 499 574 45,000  Level Houston Center
06:21PM 31.0656 -100.5419 100° East 504 580 45,000  Level Houston Center
06:22PM 31.0406 -100.3825 100° East 506 582 45,000  Level Houston Center
06:23PM 31.0175 -100.2231 100° East 501 577 45,000  Level Houston Center
06:24PM 30.9922 -100.0614 100° East 501 577 45,000 -300 Level Houston Center
06:25PM 30.9689 -99.9000 100° East 501 577 44,500 -900 Descending Houston Center
06:26PM 30.9453 -99.7408 100° East 501 577 43,300 -1,620 Descending Houston Center
06:27PM 30.9194 -99.5767 100° East 506 582 41,300 -2,100 Descending Houston Center
06:28PM 30.8972 -99.4228 100° East 506 582 39,200 -2,520 Descending Houston Center
06:29PM 30.8733 -99.2589 103° East 506 582 36,300 -3,000 Descending Houston Center
06:30PM 30.8392 -99.0850 100° East 506 582 33,300 -3,480 Descending Houston Center
06:32PM 30.7917 -98.7650 97° East 506 582 26,000 -3,120 Descending Houston Center
06:33PM 30.7767 -98.6144 97° East 457 526 24,000 -4,260 Descending Houston Center
06:34PM 30.7642 -98.4928 97° East 457 526 17,500 -5,100 Descending Houston Center
06:35PM 30.7500 -98.3614 97° East 425 489 13,800 -3,000 Descending Houston Center
06:36PM 30.7369 -98.2400 97° East 396 456 11,500 -1,920 Descending Houston Center
06:37PM 30.7242 -98.1208 121° Southeast 378 435 10,000 -780 Descending Houston Center
06:38PM 30.6744 -98.0236 130° Southeast 341 392 10,000 -1,200 Level Houston Center
06:40PM 30.5747 -97.8847 129° Southeast 279 321 6,500 -1,680 Descending Houston Center
06:41PM 30.5256 -97.8142 133° Southeast 268 308 5,100 -1,200 Descending Houston Center
06:42PM 30.4783 -97.7561 131° Southeast 251 289 4,200 -1,020 Descending Houston Center
06:43PM 30.4350 -97.6981 152° Southeast 246 283 3,100 -600 Descending Houston Center
06:44PM 30.3781 -97.6633 177° South 239 275 3,000 -240 Descending Houston Center
06:45PM 30.3094 -97.6594 181° South 230 265 2,700 -720 Descending Houston Center
06:46PM 30.2511 -97.6608 177° South 227 261 1,600 -900 Descending Houston Center
06:47PM 30.2239 -97.6592 177° South 173 199 1,000 -600 Descending Houston Center